createdAt,value
2022-09-22T06:16:22.588Z,5.90
2022-09-22T06:49:00.397Z,7.53
2022-09-22T07:06:50.528Z,8.20
2022-09-22T07:26:03.242Z,7.43
2022-09-22T07:46:08.097Z,6.97
2022-09-22T08:06:06.329Z,3.07
2022-09-22T08:25:03.236Z,1.97
2022-09-22T08:29:56.868Z,2.53
2022-09-22T08:49:42.326Z,1.80
2022-09-22T08:54:36.536Z,2.57
2022-09-22T08:59:36.644Z,3.80
2022-09-22T09:16:04.753Z,1.90
2022-09-22T09:20:59.666Z,2.37
2022-09-22T09:25:56.414Z,1.77
2022-09-22T09:30:52.889Z,2.23
2022-09-22T09:35:53.830Z,5.97
2022-09-22T09:40:49.762Z,3.23
2022-09-22T09:45:59.578Z,1.40
2022-09-22T09:50:54.988Z,2.93
2022-09-22T09:55:50.843Z,1.70
2022-09-22T10:01:05.909Z,1.43
2022-09-22T10:06:03.425Z,1.27
2022-09-22T10:10:59.480Z,1.47
2022-09-22T10:16:06.449Z,1.30
2022-09-22T10:21:07.265Z,1.67
2022-09-22T10:26:19.569Z,1.50
2022-09-22T10:31:22.246Z,1.40
2022-09-22T10:36:17.593Z,1.38
2022-09-22T10:41:14.025Z,2.07
2022-09-22T10:46:29.408Z,1.40
2022-09-22T10:51:40.268Z,1.20
2022-09-22T10:56:39.217Z,1.50
2022-09-22T11:01:48.843Z,1.97
2022-09-22T11:07:22.421Z,1.27
2022-09-22T11:12:26.516Z,2.50
2022-09-22T11:17:31.473Z,1.50
2022-09-22T11:22:51.495Z,2.08
2022-09-22T11:28:01.007Z,1.63
2022-09-22T11:33:27.833Z,1.40
2022-09-22T11:39:03.208Z,1.20
2022-09-22T11:44:31.706Z,1.30
2022-09-22T11:49:40.725Z,1.20
2022-09-22T11:54:52.055Z,1.30
2022-09-22T11:59:53.302Z,1.83
2022-09-22T12:04:53.282Z,1.63
2022-09-22T12:09:50.322Z,3.13
2022-09-22T12:14:44.430Z,6.05
2022-09-22T12:19:54.613Z,1.50
2022-09-22T12:24:49.022Z,1.50
2022-09-22T12:29:43.526Z,1.85
2022-09-22T12:34:40.806Z,1.55
2022-09-22T12:39:42.106Z,1.25
2022-09-22T12:44:37.705Z,1.60
2022-09-22T12:49:32.580Z,2.10
2022-09-22T12:54:48.462Z,2.65
2022-09-22T12:59:58.414Z,2.45
2022-09-22T13:05:24.725Z,1.75
2022-09-22T13:10:43.706Z,1.70
2022-09-22T13:15:59.591Z,1.60
2022-09-22T13:20:53.099Z,1.63
2022-09-22T13:25:46.637Z,2.10
2022-09-22T13:30:43.110Z,1.92
2022-09-22T13:35:38.770Z,5.10
2022-09-22T13:40:34.929Z,4.50
2022-09-22T13:45:30.406Z,3.25
2022-09-22T13:50:26.278Z,2.58
2022-09-22T13:55:26.155Z,3.38
2022-09-22T14:00:24.884Z,1.50
2022-09-22T14:05:21.578Z,2.03
2022-09-22T14:10:19.828Z,1.98
2022-09-22T14:15:43.615Z,2.55
2022-09-22T14:20:40.866Z,1.80
2022-09-22T14:25:36.610Z,2.15
2022-09-22T14:30:31.529Z,1.50
2022-09-22T14:35:30.261Z,1.77
2022-09-22T14:40:25.854Z,1.75
2022-09-22T14:45:22.402Z,1.65
2022-09-22T14:50:20.772Z,4.28
2022-09-22T14:55:29.323Z,3.10
2022-09-22T15:00:42.007Z,1.60
2022-09-22T15:05:36.357Z,1.60
2022-09-22T15:10:31.226Z,4.13
2022-09-22T15:15:28.026Z,8.45
2022-09-22T15:20:21.866Z,4.70
2022-09-22T15:25:17.416Z,3.22
2022-09-22T15:30:15.842Z,1.85
2022-09-22T15:35:12.938Z,2.72
2022-09-22T15:40:21.401Z,2.45
2022-09-22T15:45:17.963Z,2.65
2022-09-22T15:50:18.175Z,3.60
2022-09-22T15:55:15.093Z,3.65
2022-09-22T16:00:16.033Z,3.65
2022-09-22T16:05:12.437Z,2.53
2022-09-22T16:10:09.389Z,4.07
2022-09-22T16:15:03.248Z,4.05
2022-09-22T16:19:57.160Z,5.93
2022-09-22T16:24:51.041Z,4.47
2022-09-22T16:29:46.471Z,7.57
2022-09-22T16:34:40.002Z,7.67
2022-09-22T16:39:33.690Z,8.37
2022-09-22T16:44:27.629Z,20.03
2022-09-22T16:49:22.854Z,19.87
2022-09-22T16:54:16.940Z,14.37
2022-09-22T16:59:11.534Z,11.70
2022-09-22T17:04:05.677Z,15.03
2022-09-22T17:09:01.722Z,15.63
2022-09-22T17:13:55.810Z,14.83
2022-09-22T17:18:52.311Z,28.70
2022-09-22T17:23:46.143Z,29.50
2022-09-22T17:28:41.588Z,35.37
2022-09-22T17:33:37.482Z,51.87
2022-09-22T17:38:36.302Z,46.10
2022-09-22T17:43:29.943Z,38.73
2022-09-22T17:48:42.124Z,27.60
2022-09-22T17:53:53.375Z,14.23
2022-09-22T17:58:47.363Z,7.63
2022-09-22T18:03:45.359Z,6.23
2022-09-22T18:08:44.795Z,10.50
2022-09-22T18:13:40.509Z,18.67
2022-09-22T18:18:34.118Z,25.60
2022-09-22T18:23:29.199Z,18.03
2022-09-22T18:28:23.270Z,12.93
2022-09-22T18:33:18.803Z,13.83
2022-09-22T18:38:12.261Z,15.03
2022-09-22T18:43:10.520Z,13.07
2022-09-22T18:48:05.538Z,10.03
2022-09-22T18:52:59.345Z,10.47
2022-09-22T18:57:54.199Z,18.57
2022-09-22T19:02:50.581Z,23.60
2022-09-22T19:07:47.832Z,9.57
2022-09-22T19:12:41.765Z,8.27
2022-09-22T19:17:38.502Z,8.43
